createdAt,value
2023-11-25T00:00:00.718Z,97916.75
2023-11-25T00:01:32.814Z,97908.47
2023-11-25T00:03:05.064Z,97932.50
2023-11-25T00:04:37.112Z,97934.91
2023-11-25T00:06:09.480Z,97929.63
2023-11-25T00:07:41.504Z,97923.59
2023-11-25T00:09:17.338Z,97920.31
2023-11-25T00:10:49.496Z,97924.72
2023-11-25T00:12:24.220Z,97920.31
2023-11-25T00:13:56.245Z,97927.34
2023-11-25T00:15:28.358Z,97916.22
2023-11-25T00:18:34.147Z,97914.25
2023-11-25T00:20:06.673Z,97907.41
2023-11-25T00:21:38.837Z,97910.06
2023-11-25T00:23:10.937Z,97903.38
2023-11-25T00:24:43.001Z,97906.94
2023-11-25T00:26:15.011Z,97911.50
2023-11-25T00:27:50.835Z,97913.94
2023-11-25T00:29:22.821Z,97914.88
2023-11-25T00:30:54.959Z,97904.53
2023-11-25T00:32:26.996Z,97903.88
2023-11-25T00:33:59.940Z,97902.06
2023-11-25T00:35:32.171Z,97901.31
2023-11-25T00:37:05.368Z,97906.59
2023-11-25T00:38:37.575Z,97912.03
2023-11-25T00:40:14.279Z,97911.06
2023-11-25T00:41:46.289Z,97910.13
2023-11-25T00:43:18.413Z,97906.09
2023-11-25T00:44:50.844Z,97908.63
2023-11-25T00:46:22.941Z,97907.75
2023-11-25T00:47:58.135Z,97907.06
2023-11-25T00:49:30.315Z,97908.88
2023-11-25T00:51:02.800Z,97903.63
2023-11-25T00:52:35.001Z,97902.72
2023-11-25T00:55:38.803Z,97898.22
2023-11-25T00:57:10.818Z,97882.28
2023-11-25T00:58:43.462Z,97874.88
2023-11-25T01:00:19.995Z,97879.25
2023-11-25T01:01:54.295Z,97861.91
2023-11-25T01:03:26.528Z,97859.38
2023-11-25T01:04:58.681Z,97857.94
2023-11-25T01:06:31.506Z,97858.84
2023-11-25T01:08:03.584Z,97862.22
2023-11-25T01:09:36.071Z,97856.81
2023-11-25T01:11:08.442Z,97854.84
2023-11-25T01:12:40.530Z,97855.63
2023-11-25T01:14:13.586Z,97860.63
2023-11-25T01:15:46.304Z,97846.06
2023-11-25T01:17:18.481Z,97839.06
2023-11-25T01:18:50.492Z,97837.31
2023-11-25T01:20:23.215Z,97839.00
2023-11-25T01:21:55.433Z,97829.44
2023-11-25T01:23:27.569Z,97833.00
2023-11-25T01:24:59.577Z,97833.88
2023-11-25T01:26:31.577Z,97827.06
2023-11-25T01:28:05.362Z,97822.75
2023-11-25T01:29:37.567Z,97819.25
2023-11-25T01:31:11.677Z,97823.78
2023-11-25T01:32:43.743Z,97822.28
2023-11-25T01:34:15.840Z,97817.31
2023-11-25T01:35:48.768Z,97818.94
2023-11-25T01:37:20.894Z,97816.22
2023-11-25T01:38:52.888Z,97822.06
2023-11-25T01:40:24.910Z,97812.69
2023-11-25T01:41:56.959Z,97806.69
2023-11-25T01:43:29.031Z,97814.44
2023-11-25T01:45:03.964Z,97801.59
2023-11-25T01:46:40.029Z,97807.63
2023-11-25T01:48:12.252Z,97802.47
2023-11-25T01:49:45.384Z,97812.03
2023-11-25T01:51:17.490Z,97809.44
2023-11-25T01:52:49.916Z,97807.88
2023-11-25T01:54:22.001Z,97803.00
2023-11-25T01:55:54.326Z,97799.31
2023-11-25T01:57:29.217Z,97804.53
2023-11-25T01:59:01.495Z,97801.00
2023-11-25T02:00:36.126Z,97802.81
2023-11-25T02:02:08.354Z,97799.53
2023-11-25T02:03:41.462Z,97796.56
2023-11-25T02:05:13.988Z,97795.03
2023-11-25T02:06:46.485Z,97790.75
2023-11-25T02:08:18.478Z,97793.22
2023-11-25T02:09:50.561Z,97793.47
2023-11-25T02:11:22.622Z,97797.97
2023-11-25T02:12:54.724Z,97798.94
2023-11-25T02:14:27.131Z,97790.88
2023-11-25T02:15:59.474Z,97791.38
2023-11-25T02:17:31.609Z,97783.72
2023-11-25T02:19:03.636Z,97776.41
2023-11-25T02:20:42.246Z,97777.50
2023-11-25T02:22:14.300Z,97783.59
2023-11-25T02:23:46.411Z,97778.31
2023-11-25T02:25:18.456Z,97774.38
2023-11-25T02:26:58.665Z,97777.28
2023-11-25T02:28:30.693Z,97773.97
2023-11-25T02:30:07.710Z,97776.56
2023-11-25T02:31:40.111Z,97775.03
2023-11-25T02:33:13.415Z,97771.66
2023-11-25T02:34:47.322Z,97782.72
2023-11-25T02:36:19.326Z,97786.06
2023-11-25T02:37:51.467Z,97785.41
2023-11-25T02:39:24.533Z,97772.81
2023-11-25T02:40:56.660Z,97775.34
2023-11-25T02:42:28.637Z,97770.28
2023-11-25T02:44:03.994Z,97775.22
2023-11-25T02:47:15.267Z,97763.63
2023-11-25T02:48:51.291Z,97757.81
2023-11-25T02:50:23.419Z,97765.50
2023-11-25T02:51:59.972Z,97769.53
2023-11-25T02:53:34.989Z,97772.91
2023-11-25T02:55:07.341Z,97770.88
2023-11-25T02:56:39.461Z,97771.44
2023-11-25T02:58:13.428Z,97770.59
2023-11-25T02:59:45.457Z,97773.22
2023-11-25T03:01:18.184Z,97769.03
2023-11-25T03:02:52.972Z,97777.59
2023-11-25T03:04:28.389Z,97773.44
2023-11-25T03:06:02.004Z,97769.91
2023-11-25T03:07:35.538Z,97768.06
2023-11-25T03:09:11.116Z,97762.78
2023-11-25T03:10:43.425Z,97766.25
2023-11-25T03:12:15.481Z,97771.38
2023-11-25T03:13:47.602Z,97773.00
2023-11-25T03:15:19.858Z,97769.47
2023-11-25T03:16:54.032Z,97781.59
2023-11-25T03:18:26.216Z,97773.00
2023-11-25T03:19:59.308Z,97775.53
2023-11-25T03:21:32.046Z,97769.63
2023-11-25T03:23:04.772Z,97774.00
2023-11-25T03:24:36.789Z,97769.91
2023-11-25T03:26:13.699Z,97763.94
2023-11-25T03:27:45.770Z,97752.13
2023-11-25T03:29:20.199Z,97752.44
2023-11-25T03:30:52.285Z,97739.50
2023-11-25T03:32:26.971Z,97740.22
2023-11-25T03:33:59.252Z,97736.00
2023-11-25T03:35:33.396Z,97747.13
2023-11-25T03:37:06.390Z,97754.78
2023-11-25T03:38:38.488Z,97756.44
2023-11-25T03:40:15.432Z,97755.50
2023-11-25T03:41:50.134Z,97758.84
2023-11-25T03:43:28.121Z,97758.78
2023-11-25T03:45:00.230Z,97762.16
2023-11-25T03:46:32.516Z,97768.91
2023-11-25T03:48:04.909Z,97767.19
2023-11-25T03:49:37.044Z,97769.00
2023-11-25T03:51:12.085Z,97770.88
2023-11-25T03:52:44.598Z,97765.63
2023-11-25T03:54:16.783Z,97767.28
2023-11-25T03:55:48.948Z,97766.69
2023-11-25T03:57:24.030Z,97768.59
2023-11-25T03:58:56.047Z,97766.75
2023-11-25T04:00:28.489Z,97767.66
2023-11-25T04:02:00.720Z,97768.59
2023-11-25T04:03:34.331Z,97778.16
2023-11-25T04:05:06.707Z,97776.69
2023-11-25T04:06:38.804Z,97772.72
2023-11-25T04:08:10.786Z,97766.75
2023-11-25T04:09:43.906Z,97756.47
2023-11-25T04:11:16.007Z,97762.50
2023-11-25T04:12:48.779Z,97768.75
2023-11-25T04:14:20.807Z,97764.50
2023-11-25T04:15:52.843Z,97765.50
2023-11-25T04:17:24.948Z,97758.31
2023-11-25T04:18:57.115Z,97762.66
2023-11-25T04:20:35.209Z,97764.56
2023-11-25T04:22:08.203Z,97758.53
2023-11-25T04:23:40.332Z,97765.72
2023-11-25T04:25:13.617Z,97766.50
2023-11-25T04:26:45.683Z,97769.16
2023-11-25T04:28:17.935Z,97765.22
2023-11-25T04:29:53.905Z,97762.56
2023-11-25T04:31:26.028Z,97761.63
2023-11-25T04:32:58.075Z,97758.63
2023-11-25T04:34:30.165Z,97760.69
2023-11-25T04:36:02.212Z,97771.00
2023-11-25T04:37:38.812Z,97762.75
2023-11-25T04:39:12.176Z,97766.25
2023-11-25T04:40:44.434Z,97768.16
2023-11-25T04:42:16.496Z,97774.91
2023-11-25T04:43:48.579Z,97771.66
2023-11-25T04:45:21.984Z,97777.81
2023-11-25T04:46:54.118Z,97773.53
2023-11-25T04:48:26.258Z,97778.97
2023-11-25T04:49:58.302Z,97786.56
2023-11-25T04:51:32.935Z,97787.47
2023-11-25T04:53:05.484Z,97792.66
2023-11-25T04:54:39.596Z,97788.50
2023-11-25T04:56:13.117Z,97786.00
2023-11-25T04:57:46.401Z,97789.63
2023-11-25T04:59:18.521Z,97782.91
2023-11-25T05:00:50.600Z,97795.03
2023-11-25T05:02:22.704Z,97801.94
2023-11-25T05:03:54.946Z,97803.09
2023-11-25T05:05:27.303Z,97801.34
2023-11-25T05:06:59.318Z,97805.56
2023-11-25T05:08:31.411Z,97805.03
2023-11-25T05:10:05.216Z,97798.50
2023-11-25T05:11:39.412Z,97798.44
2023-11-25T05:13:13.679Z,97795.13
2023-11-25T05:14:47.812Z,97806.19
2023-11-25T05:16:21.291Z,97808.09
2023-11-25T05:17:56.498Z,97802.94
2023-11-25T05:19:28.587Z,97804.59
2023-11-25T05:21:00.662Z,97804.91
2023-11-25T05:22:32.826Z,97801.88
2023-11-25T05:24:05.881Z,97811.28
2023-11-25T05:25:37.968Z,97812.97
2023-11-25T05:27:10.125Z,97816.47
2023-11-25T05:28:45.250Z,97812.97
2023-11-25T05:30:17.461Z,97817.38
2023-11-25T05:31:49.663Z,97815.72
2023-11-25T05:33:21.912Z,97814.00
2023-11-25T05:34:53.970Z,97816.72
2023-11-25T05:36:26.046Z,97822.75
2023-11-25T05:37:58.214Z,97821.88
2023-11-25T05:39:32.624Z,97810.88
2023-11-25T05:41:05.671Z,97813.53
2023-11-25T05:42:39.976Z,97809.25
2023-11-25T05:44:12.215Z,97812.63
2023-11-25T05:45:45.453Z,97828.03
2023-11-25T05:47:17.543Z,97835.84
2023-11-25T05:48:49.643Z,97830.66
2023-11-25T05:50:22.736Z,97826.38
2023-11-25T05:51:56.576Z,97809.34
2023-11-25T05:53:29.827Z,97816.28
2023-11-25T05:55:01.888Z,97828.41
2023-11-25T05:56:34.293Z,97833.72
2023-11-25T05:58:06.414Z,97846.72
2023-11-25T05:59:38.925Z,97834.00
2023-11-25T06:01:11.025Z,97840.13
2023-11-25T06:02:43.477Z,97849.69
2023-11-25T06:04:17.729Z,97841.13
2023-11-25T06:05:51.624Z,97851.53
2023-11-25T06:07:23.805Z,97855.84
2023-11-25T06:08:55.851Z,97862.00
2023-11-25T06:10:27.976Z,97867.28
2023-11-25T06:12:00.151Z,97875.91
2023-11-25T06:13:32.891Z,97877.63
2023-11-25T06:15:06.150Z,97882.06
2023-11-25T06:16:43.405Z,97883.84
2023-11-25T06:18:16.298Z,97875.34
2023-11-25T06:19:50.089Z,97870.25
2023-11-25T06:21:22.402Z,97859.19
2023-11-25T06:22:54.599Z,97857.69
2023-11-25T06:24:27.049Z,97867.16
2023-11-25T06:25:59.160Z,97866.28
2023-11-25T06:27:31.241Z,97867.13
2023-11-25T06:29:04.303Z,97855.28
2023-11-25T06:30:36.437Z,97860.41
2023-11-25T06:32:08.707Z,97859.59
2023-11-25T06:33:41.507Z,97864.75
2023-11-25T06:35:13.781Z,97868.22
2023-11-25T06:36:46.654Z,97869.16
2023-11-25T06:38:19.261Z,97869.16
2023-11-25T06:39:51.467Z,97876.97
2023-11-25T06:41:26.787Z,97883.81
2023-11-25T06:42:58.991Z,97894.03
2023-11-25T06:44:33.971Z,97891.47
2023-11-25T06:46:06.865Z,97894.16
2023-11-25T06:47:40.366Z,97891.72
2023-11-25T06:49:14.876Z,97892.66
2023-11-25T06:50:47.094Z,97895.34
2023-11-25T06:52:19.333Z,97891.22
2023-11-25T06:53:51.494Z,97892.25
2023-11-25T06:55:23.738Z,97889.88
2023-11-25T06:56:55.869Z,97894.97
2023-11-25T06:58:27.961Z,97887.34
2023-11-25T07:00:00.063Z,97892.44
2023-11-25T07:01:32.335Z,97897.50
2023-11-25T07:03:04.558Z,97894.97
2023-11-25T07:04:36.816Z,97889.06
2023-11-25T07:06:09.457Z,97895.03
2023-11-25T07:07:41.630Z,97895.03
2023-11-25T07:09:15.554Z,97895.94
2023-11-25T07:10:55.553Z,97897.66
2023-11-25T07:12:28.373Z,97894.22
2023-11-25T07:14:00.367Z,97898.50
2023-11-25T07:15:32.714Z,97901.03
2023-11-25T07:17:05.105Z,97894.19
2023-11-25T07:18:38.281Z,97895.09
2023-11-25T07:20:13.866Z,97883.19
2023-11-25T07:21:46.234Z,97894.31
2023-11-25T07:23:20.279Z,97897.78
2023-11-25T07:24:52.474Z,97903.69
2023-11-25T07:26:24.644Z,97899.41
2023-11-25T07:27:56.787Z,97890.03
2023-11-25T07:29:32.783Z,97897.69
2023-11-25T07:31:05.164Z,97898.59
2023-11-25T07:32:38.665Z,97895.97
2023-11-25T07:34:10.850Z,97891.78
2023-11-25T07:35:42.929Z,97890.91
2023-11-25T07:37:17.269Z,97893.50
2023-11-25T07:38:49.434Z,97897.84
2023-11-25T07:40:21.581Z,97893.63
2023-11-25T07:41:58.307Z,97894.56
2023-11-25T07:43:30.527Z,97892.09
2023-11-25T07:45:08.587Z,97893.84
2023-11-25T07:46:40.791Z,97888.84
2023-11-25T07:48:13.361Z,97888.09
2023-11-25T07:49:45.675Z,97887.28
2023-11-25T07:51:19.660Z,97886.47
2023-11-25T07:52:52.791Z,97881.34
2023-11-25T07:54:25.688Z,97884.72
2023-11-25T07:55:57.939Z,97885.56
2023-11-25T07:57:30.249Z,97889.84
2023-11-25T07:59:03.219Z,97894.97
2023-11-25T08:00:35.589Z,97885.56
2023-11-25T08:02:07.755Z,97877.88
2023-11-25T08:03:39.913Z,97882.09
2023-11-25T08:05:24.024Z,97882.09
2023-11-25T08:06:56.877Z,97890.56
2023-11-25T08:08:31.579Z,97889.66
2023-11-25T08:10:08.647Z,97890.47
2023-11-25T08:11:40.763Z,97883.63
2023-11-25T08:13:12.830Z,97886.19
2023-11-25T08:14:44.938Z,97885.34
2023-11-25T08:16:17.399Z,97885.34
2023-11-25T08:17:50.068Z,97883.63
2023-11-25T08:19:22.965Z,97885.34
2023-11-25T08:20:55.165Z,97887.91
2023-11-25T08:22:27.571Z,97885.31
2023-11-25T08:23:59.716Z,97887.81
2023-11-25T08:25:31.919Z,97882.69
2023-11-25T08:27:04.240Z,97876.72
2023-11-25T08:28:36.411Z,97877.56
2023-11-25T08:30:10.400Z,97875.00
2023-11-25T08:31:42.799Z,97871.53
2023-11-25T08:33:15.118Z,97866.44
2023-11-25T08:34:47.802Z,97867.31
2023-11-25T08:36:20.688Z,97874.91
2023-11-25T08:37:52.916Z,97882.56
2023-11-25T08:39:28.363Z,97890.16
2023-11-25T08:41:00.617Z,97890.94
2023-11-25T08:42:36.828Z,97886.63
2023-11-25T08:44:09.174Z,97875.47
2023-11-25T08:45:41.575Z,97875.41
2023-11-25T08:47:13.818Z,97879.59
2023-11-25T08:48:46.949Z,97881.19
2023-11-25T08:50:19.137Z,97879.44
2023-11-25T08:51:52.785Z,97887.13
2023-11-25T08:53:25.649Z,97884.56
2023-11-25T08:54:57.898Z,97888.81
2023-11-25T08:56:37.120Z,97886.25
2023-11-25T08:58:09.933Z,97886.25
2023-11-25T08:59:42.129Z,97890.34
2023-11-25T09:01:14.378Z,97884.31
2023-11-25T09:02:47.817Z,97881.69
2023-11-25T09:04:23.970Z,97879.09
2023-11-25T09:05:56.343Z,97881.63
2023-11-25T09:07:28.530Z,97874.75
2023-11-25T09:09:00.763Z,97871.38
2023-11-25T09:10:33.252Z,97873.06
2023-11-25T09:12:10.952Z,97868.75
2023-11-25T09:13:43.029Z,97867.91
2023-11-25T09:15:15.234Z,97864.44
2023-11-25T09:16:48.122Z,97860.22
2023-11-25T09:18:20.470Z,97861.97
2023-11-25T09:19:52.848Z,97854.22
2023-11-25T09:21:25.062Z,97862.66
2023-11-25T09:22:57.588Z,97853.22
2023-11-25T09:24:29.873Z,97857.44
2023-11-25T09:26:02.216Z,97853.09
2023-11-25T09:27:34.873Z,97847.09
2023-11-25T09:29:07.279Z,97849.63
2023-11-25T09:30:39.732Z,97849.59
2023-11-25T09:32:12.193Z,97847.84
2023-11-25T09:33:44.508Z,97842.66
2023-11-25T09:35:16.661Z,97840.91
2023-11-25T09:36:48.765Z,97849.38
2023-11-25T09:38:21.036Z,97834.84
2023-11-25T09:39:53.144Z,97833.16
2023-11-25T09:41:25.307Z,97835.72
2023-11-25T09:42:57.547Z,97824.59
2023-11-25T09:44:29.747Z,97817.66
2023-11-25T09:46:02.474Z,97809.16
2023-11-25T09:47:34.587Z,97819.41
2023-11-25T09:49:06.694Z,97822.84
2023-11-25T09:50:39.119Z,97825.38
2023-11-25T09:52:11.319Z,97826.19
2023-11-25T09:53:43.452Z,97819.41
2023-11-25T09:55:16.997Z,97812.56
2023-11-25T09:56:49.411Z,97809.16
2023-11-25T09:58:21.559Z,97810.94
2023-11-25T09:59:53.638Z,97812.72
2023-11-25T10:01:25.901Z,97794.03
2023-11-25T10:02:59.434Z,97793.19
2023-11-25T10:04:34.393Z,97794.97
2023-11-25T10:06:07.559Z,97793.28
2023-11-25T10:07:39.684Z,97793.19
2023-11-25T10:09:12.462Z,97789.69
2023-11-25T10:10:58.837Z,97785.38
2023-11-25T10:12:31.617Z,97781.31
2023-11-25T10:14:04.938Z,97777.03
2023-11-25T10:15:45.783Z,97774.50
2023-11-25T10:17:19.244Z,97777.94
2023-11-25T10:18:52.747Z,97771.19
2023-11-25T10:20:25.012Z,97774.53
2023-11-25T10:21:58.827Z,97775.38
2023-11-25T10:23:30.947Z,97780.47
2023-11-25T10:25:04.320Z,97782.13
2023-11-25T10:26:37.871Z,97772.66
2023-11-25T10:28:11.223Z,97773.41
2023-11-25T10:29:43.504Z,97772.56
2023-11-25T10:31:18.216Z,97770.03
2023-11-25T10:32:51.649Z,97767.59
2023-11-25T10:34:26.016Z,97762.47
2023-11-25T10:35:58.705Z,97761.63
2023-11-25T10:37:33.102Z,97764.22
2023-11-25T10:39:10.205Z,97769.38
2023-11-25T10:40:42.382Z,97766.81
2023-11-25T10:42:15.051Z,97771.03
2023-11-25T10:43:47.286Z,97767.59
2023-11-25T10:45:19.894Z,97769.22
2023-11-25T10:46:57.637Z,97767.44
2023-11-25T10:48:30.125Z,97753.69
2023-11-25T10:50:05.802Z,97757.88
2023-11-25T10:51:38.973Z,97745.06
2023-11-25T10:53:13.961Z,97742.38
2023-11-25T10:54:46.958Z,97733.00
2023-11-25T10:56:21.035Z,97723.59
2023-11-25T10:57:53.218Z,97724.53
2023-11-25T10:59:26.975Z,97738.28
2023-11-25T11:00:59.620Z,97737.47
2023-11-25T11:02:32.608Z,97739.16
2023-11-25T11:04:07.131Z,97725.47
2023-11-25T11:05:51.699Z,97721.16
2023-11-25T11:07:23.780Z,97718.47
2023-11-25T11:08:55.875Z,97716.59
2023-11-25T11:10:32.705Z,97724.97
2023-11-25T11:12:09.135Z,97729.22
2023-11-25T11:13:44.717Z,97728.34
2023-11-25T11:15:17.493Z,97724.09
2023-11-25T11:16:54.319Z,97723.16
2023-11-25T11:18:32.133Z,97713.72
2023-11-25T11:20:04.432Z,97707.81
2023-11-25T11:21:38.605Z,97707.75
2023-11-25T11:23:10.766Z,97715.31
2023-11-25T11:24:45.739Z,97700.75
2023-11-25T11:26:18.432Z,97700.63
2023-11-25T11:27:56.957Z,97689.59
2023-11-25T11:29:52.283Z,97687.84
2023-11-25T11:31:24.614Z,97686.06
2023-11-25T11:32:56.832Z,97684.44
2023-11-25T11:34:29.762Z,97684.56
2023-11-25T11:36:02.929Z,97677.72
2023-11-25T11:37:47.717Z,97673.41
2023-11-25T11:39:35.862Z,97666.69
2023-11-25T11:41:10.773Z,97653.91
2023-11-25T11:42:45.983Z,97653.00
2023-11-25T11:44:18.973Z,97648.63
2023-11-25T11:45:51.322Z,97636.50
2023-11-25T11:47:25.409Z,97629.56
2023-11-25T11:48:57.532Z,97631.13
2023-11-25T11:50:37.031Z,97625.16
2023-11-25T11:52:11.360Z,97625.94
2023-11-25T11:53:44.786Z,97624.34
2023-11-25T11:55:36.488Z,97628.63
2023-11-25T11:57:15.143Z,97613.16
2023-11-25T11:58:59.999Z,97620.72
2023-11-25T12:00:34.660Z,97616.56
2023-11-25T12:02:07.473Z,97618.19
2023-11-25T12:03:39.752Z,97622.47
2023-11-25T12:05:12.623Z,97617.38
2023-11-25T12:06:44.949Z,97610.56
2023-11-25T12:08:17.406Z,97605.34
2023-11-25T12:09:49.480Z,97603.56
2023-11-25T12:11:21.685Z,97604.47
2023-11-25T12:12:54.693Z,97617.19
2023-11-25T12:14:26.756Z,97626.56
2023-11-25T12:16:03.178Z,97636.03
2023-11-25T12:17:35.396Z,97647.13
2023-11-25T12:19:07.536Z,97649.63
2023-11-25T12:20:40.738Z,97648.03
2023-11-25T12:22:13.358Z,97651.56
2023-11-25T12:23:51.546Z,97643.88
2023-11-25T12:25:28.382Z,97647.19
2023-11-25T12:27:00.660Z,97657.50
2023-11-25T12:28:33.066Z,97668.59
2023-11-25T12:30:05.732Z,97661.81
2023-11-25T12:31:38.065Z,97659.25
2023-11-25T12:33:10.973Z,97652.38
2023-11-25T12:34:43.221Z,97644.56
2023-11-25T12:36:15.339Z,97637.78
2023-11-25T12:38:00.913Z,97624.06
2023-11-25T12:39:40.546Z,97622.25
2023-11-25T12:41:15.034Z,97610.28
2023-11-25T12:42:48.120Z,97604.31
2023-11-25T12:44:21.982Z,97613.66
2023-11-25T12:45:57.683Z,97604.31
2023-11-25T12:47:29.923Z,97594.97
2023-11-25T12:49:18.596Z,97597.53
2023-11-25T12:51:08.857Z,97588.13
2023-11-25T12:52:41.122Z,97588.94
2023-11-25T12:54:13.182Z,97582.09
2023-11-25T12:55:49.859Z,97579.66
2023-11-25T12:57:25.987Z,97588.06
2023-11-25T13:00:37.150Z,97591.38
2023-11-25T13:02:13.804Z,97587.94
2023-11-25T13:03:45.976Z,97588.78
2023-11-25T13:05:25.823Z,97571.78
2023-11-25T13:07:01.494Z,97579.41
2023-11-25T13:08:38.466Z,97573.44
2023-11-25T13:10:10.868Z,97568.44
2023-11-25T13:11:43.294Z,97559.94
2023-11-25T13:13:16.297Z,97564.28
2023-11-25T13:14:48.952Z,97564.19
2023-11-25T13:16:21.342Z,97558.28
2023-11-25T13:17:53.429Z,97548.91
2023-11-25T13:19:27.498Z,97548.91
2023-11-25T13:21:03.074Z,97546.28
2023-11-25T13:22:35.497Z,97564.16
2023-11-25T13:24:07.924Z,97564.16
2023-11-25T13:25:40.081Z,97557.38
2023-11-25T13:27:12.241Z,97550.66
2023-11-25T13:28:44.299Z,97549.88
2023-11-25T13:30:17.627Z,97559.97
2023-11-25T13:31:49.738Z,97558.25
2023-11-25T13:33:22.027Z,97552.25
2023-11-25T13:34:54.284Z,97562.41
2023-11-25T13:36:27.425Z,97564.88
2023-11-25T13:38:00.573Z,97561.56
2023-11-25T13:39:32.964Z,97559.84
2023-11-25T13:41:05.112Z,97562.31
2023-11-25T13:44:09.904Z,97568.16
2023-11-25T13:45:45.245Z,97570.72
2023-11-25T13:47:18.355Z,97569.91
2023-11-25T13:48:50.493Z,97552.88
2023-11-25T13:50:22.458Z,97542.69
2023-11-25T13:51:55.287Z,97538.56
2023-11-25T13:53:27.488Z,97545.41
2023-11-25T13:54:59.611Z,97554.84
2023-11-25T13:56:31.752Z,97558.28
2023-11-25T13:58:05.758Z,97558.38
2023-11-25T13:59:38.273Z,97563.41
2023-11-25T14:01:10.595Z,97565.94
2023-11-25T14:02:43.369Z,97557.47
2023-11-25T14:04:15.679Z,97554.09
2023-11-25T14:05:47.867Z,97565.25
2023-11-25T14:07:20.820Z,97576.38
2023-11-25T14:08:53.114Z,97581.53
2023-11-25T14:10:25.306Z,97574.69
2023-11-25T14:11:57.749Z,97570.56
2023-11-25T14:13:32.127Z,97559.50
2023-11-25T14:15:06.101Z,97561.28
2023-11-25T14:16:38.340Z,97562.09
2023-11-25T14:18:12.256Z,97556.03
2023-11-25T14:19:47.222Z,97551.84
2023-11-25T14:21:20.028Z,97547.56
2023-11-25T14:22:52.536Z,97546.59
2023-11-25T14:24:24.978Z,97557.63
2023-11-25T14:25:57.103Z,97557.63
2023-11-25T14:27:29.920Z,97557.63
2023-11-25T14:29:03.875Z,97556.81
2023-11-25T14:30:35.948Z,97550.09
2023-11-25T14:32:08.250Z,97545.72
2023-11-25T14:33:43.412Z,97555.97
2023-11-25T14:35:15.626Z,97555.31
2023-11-25T14:36:47.736Z,97549.44
2023-11-25T14:40:00.380Z,97547.88
2023-11-25T14:41:33.649Z,97551.38
2023-11-25T14:43:07.255Z,97540.31
2023-11-25T14:44:40.461Z,97549.03
2023-11-25T14:46:13.283Z,97550.75
2023-11-25T14:47:49.215Z,97556.72
2023-11-25T14:49:21.356Z,97540.50
2023-11-25T14:50:53.751Z,97535.44
2023-11-25T14:52:26.365Z,97515.91
2023-11-25T14:53:58.459Z,97516.06
2023-11-25T14:55:30.783Z,97516.06
2023-11-25T14:57:11.553Z,97512.69
2023-11-25T14:58:43.863Z,97509.34
2023-11-25T15:00:19.857Z,97505.06
2023-11-25T15:01:54.841Z,97504.13
2023-11-25T15:03:29.868Z,97504.91
2023-11-25T15:05:02.169Z,97506.69
2023-11-25T15:06:35.777Z,97501.63
2023-11-25T15:08:08.656Z,97500.88
2023-11-25T15:09:40.978Z,97485.78
2023-11-25T15:11:13.151Z,97488.28
2023-11-25T15:12:45.785Z,97490.03
2023-11-25T15:14:17.924Z,97486.69
2023-11-25T15:15:51.569Z,97491.91
2023-11-25T15:17:27.420Z,97488.53
2023-11-25T15:18:59.712Z,97488.53
2023-11-25T15:20:31.824Z,97491.16
2023-11-25T15:22:04.240Z,97486.13
2023-11-25T15:23:39.048Z,97488.72
2023-11-25T15:25:13.058Z,97491.41
2023-11-25T15:26:45.226Z,97488.13
2023-11-25T15:28:17.688Z,97480.50
2023-11-25T15:30:02.536Z,97481.41
2023-11-25T15:31:34.728Z,97477.25
2023-11-25T15:33:06.967Z,97471.28
2023-11-25T15:34:39.132Z,97473.06
2023-11-25T15:36:11.709Z,97476.56
2023-11-25T15:37:44.578Z,97477.50
2023-11-25T15:39:18.041Z,97470.69
2023-11-25T15:40:50.162Z,97470.81
2023-11-25T15:42:22.289Z,97466.53
2023-11-25T15:43:54.803Z,97471.59
2023-11-25T15:45:26.905Z,97473.28
2023-11-25T15:46:59.304Z,97469.91
2023-11-25T15:48:31.428Z,97471.69
2023-11-25T15:50:03.543Z,97476.78
2023-11-25T15:51:36.464Z,97470.03
2023-11-25T15:53:10.383Z,97474.47
2023-11-25T15:54:42.589Z,97476.25
2023-11-25T15:56:14.757Z,97482.31
2023-11-25T15:57:46.929Z,97470.50
2023-11-25T15:59:19.043Z,97469.72
2023-11-25T16:00:55.329Z,97468.06
2023-11-25T16:02:27.594Z,97468.06
2023-11-25T16:03:59.802Z,97467.28
2023-11-25T16:05:32.481Z,97467.41
2023-11-25T16:07:05.659Z,97469.97
2023-11-25T16:08:37.990Z,97464.94
2023-11-25T16:10:11.715Z,97459.94
2023-11-25T16:11:43.809Z,97458.31
2023-11-25T16:13:15.918Z,97456.72
2023-11-25T16:14:48.145Z,97456.81
2023-11-25T16:16:20.331Z,97459.38
2023-11-25T16:17:52.441Z,97457.75
2023-11-25T16:20:57.754Z,97458.56
2023-11-25T16:22:29.992Z,97463.69
2023-11-25T16:24:02.158Z,97453.47
2023-11-25T16:25:34.422Z,97454.34
2023-11-25T16:27:06.709Z,97456.00
2023-11-25T16:28:38.784Z,97459.38
2023-11-25T16:30:15.288Z,97460.22
2023-11-25T16:33:26.987Z,97459.38
2023-11-25T16:34:59.147Z,97460.22
2023-11-25T16:36:34.548Z,97468.69
2023-11-25T16:38:07.341Z,97459.34
2023-11-25T16:39:39.465Z,97459.34
2023-11-25T16:41:13.160Z,97464.50
2023-11-25T16:42:45.467Z,97460.22
2023-11-25T16:44:21.398Z,97463.53
2023-11-25T16:45:53.946Z,97465.34
2023-11-25T16:47:26.106Z,97463.69
2023-11-25T16:49:04.406Z,97456.91
2023-11-25T16:50:41.368Z,97466.38
2023-11-25T16:52:13.449Z,97463.03
2023-11-25T16:53:45.592Z,97461.28
2023-11-25T16:55:17.913Z,97463.81
2023-11-25T16:56:50.030Z,97473.19
2023-11-25T16:58:22.220Z,97468.06
2023-11-25T16:59:54.333Z,97470.63
2023-11-25T17:01:27.715Z,97470.69
2023-11-25T17:03:00.065Z,97473.31
2023-11-25T17:04:34.989Z,97478.44
2023-11-25T17:06:10.817Z,97475.97
2023-11-25T17:07:42.900Z,97479.38
2023-11-25T17:09:15.154Z,97482.88
2023-11-25T17:10:47.312Z,97487.22
2023-11-25T17:12:19.509Z,97489.72
2023-11-25T17:13:51.700Z,97492.25
2023-11-25T17:15:23.843Z,97488.88
2023-11-25T17:16:56.897Z,97481.25
2023-11-25T17:18:29.257Z,97483.06
2023-11-25T17:20:01.364Z,97476.38
2023-11-25T17:21:33.560Z,97470.50
2023-11-25T17:23:05.803Z,97460.31
2023-11-25T17:24:37.987Z,97456.91
2023-11-25T17:26:10.124Z,97456.09
2023-11-25T17:27:42.306Z,97466.31
2023-11-25T17:29:15.502Z,97452.69
2023-11-25T17:30:47.673Z,97458.66
2023-11-25T17:32:20.429Z,97459.59
2023-11-25T17:33:55.698Z,97463.88
2023-11-25T17:35:27.812Z,97462.97
2023-11-25T17:37:01.994Z,97467.22
2023-11-25T17:38:34.045Z,97453.59
2023-11-25T17:40:07.016Z,97454.44
2023-11-25T17:41:39.222Z,97457.88
2023-11-25T17:43:11.313Z,97462.13
2023-11-25T17:44:43.420Z,97461.25
2023-11-25T17:46:15.610Z,97465.53
2023-11-25T17:47:47.752Z,97460.41
2023-11-25T17:49:19.891Z,97460.41
2023-11-25T17:50:51.969Z,97451.94
2023-11-25T17:52:24.222Z,97462.94
2023-11-25T17:53:57.980Z,97453.56
2023-11-25T17:55:30.093Z,97457.84
2023-11-25T17:57:03.987Z,97455.31
2023-11-25T17:58:36.185Z,97451.97
2023-11-25T18:00:11.839Z,97457.91
2023-11-25T18:01:44.075Z,97455.34
2023-11-25T18:03:16.522Z,97453.69
2023-11-25T18:04:48.662Z,97456.22
2023-11-25T18:06:21.449Z,97452.03
2023-11-25T18:07:55.292Z,97455.44
2023-11-25T18:09:27.485Z,97455.44
2023-11-25T18:10:59.629Z,97449.50
2023-11-25T18:12:31.825Z,97443.50
2023-11-25T18:14:04.031Z,97453.72
2023-11-25T18:15:36.170Z,97451.16
2023-11-25T18:17:08.332Z,97446.00
2023-11-25T18:18:40.607Z,97450.19
2023-11-25T18:20:12.909Z,97453.56
2023-11-25T18:21:45.018Z,97443.38
2023-11-25T18:23:17.353Z,97443.44
2023-11-25T18:24:49.740Z,97435.78
2023-11-25T18:26:22.077Z,97447.75
2023-11-25T18:27:54.707Z,97445.25